Time,TemperatureF,DewpointF,PressureIn,WindDirection,WindDirectionDegrees,WindSpeedMPH,WindSpeedGustMPH,Humidity,HourlyPrecipIn,Conditions,Clouds,dailyrainin,SoftwareType,DateUTC
2013-11-22 00:02:00,27.5,-22.0,30.42,NE,45,5.4,11.0,1,0.00,,,0.00,WUHU216HW,2013-11-22 06:02:00,
2013-11-22 00:07:00,27.5,-22.0,30.42,NE,45,6.3,8.7,1,0.00,,,0.00,WUHU216HW,2013-11-22 06:07:00,
2013-11-22 00:12:00,27.5,-22.0,30.42,NE,45,7.4,12.8,1,0.00,,,0.00,WUHU216HW,2013-11-22 06:12:00,
2013-11-22 00:17:00,27.4,-22.1,30.42,NE,45,11.6,12.8,1,0.00,,,0.00,WUHU216HW,2013-11-22 06:17:00,
2013-11-22 00:22:00,27.4,-22.1,30.42,NE,45,6.7,12.3,1,0.00,,,0.00,WUHU216HW,2013-11-22 06:22:00,
2013-11-22 00:27:00,27.4,-22.1,30.42,NE,45,11.4,12.1,1,0.00,,,0.00,WUHU216HW,2013-11-22 06:27:00,
2013-11-22 00:32:00,27.4,-22.1,30.42,NE,45,6.0,12.1,1,0.00,,,0.00,WUHU216HW,2013-11-22 06:32:00,
2013-11-22 00:37:00,27.4,-22.1,30.41,NE,45,8.5,10.5,1,0.00,,,0.00,WUHU216HW,2013-11-22 06:37:00,
2013-11-22 00:42:00,27.4,-22.1,30.42,NE,45,11.4,11.4,1,0.00,,,0.00,WUHU216HW,2013-11-22 06:42:00,
2013-11-22 00:47:00,27.2,-22.2,30.40,NE,45,6.5,12.8,1,0.00,,,0.00,WUHU216HW,2013-11-22 06:47:00,
2013-11-22 00:52:00,27.2,-22.2,30.41,NE,45,11.6,12.8,1,0.00,,,0.00,WUHU216HW,2013-11-22 06:52:00,
2013-11-22 00:57:00,27.2,-22.2,30.41,NE,45,5.6,11.6,1,0.00,,,0.00,WUHU216HW,2013-11-22 06:57:00,
2013-11-22 01:02:00,27.0,-22.4,30.41,NE,45,10.1,11.4,1,0.00,,,0.00,WUHU216HW,2013-11-22 07:02:00,
2013-11-22 01:07:00,26.8,-22.5,30.41,NE,45,16.6,16.6,1,0.00,,,0.00,WUHU216HW,2013-11-22 07:07:00,
2013-11-22 01:12:00,26.5,-22.9,30.42,NE,45,12.1,16.6,1,0.00,,,0.00,WUHU216HW,2013-11-22 07:12:00,
2013-11-22 01:17:00,26.3,-22.9,30.42,NE,45,11.2,17.7,1,0.00,,,0.00,WUHU216HW,2013-11-22 07:17:00,
2013-11-22 01:22:00,26.3,-22.9,30.43,NE,45,11.4,17.7,1,0.00,,,0.00,WUHU216HW,2013-11-22 07:22:00,
2013-11-22 01:27:00,26.3,-22.9,30.43,NE,45,8.5,11.4,1,0.00,,,0.00,WUHU216HW,2013-11-22 07:27:00,
2013-11-22 01:32:00,26.3,-22.9,30.44,NE,45,10.1,10.5,1,0.00,,,0.00,WUHU216HW,2013-11-22 07:32:00,
2013-11-22 01:37:00,26.3,-22.9,30.44,NE,45,17.2,17.2,1,0.00,,,0.00,WUHU216HW,2013-11-22 07:37:00,
2013-11-22 01:42:00,25.9,-23.2,30.44,NE,45,13.0,17.2,1,0.00,,,0.00,WUHU216HW,2013-11-22 07:42:00,
2013-11-22 01:47:00,25.7,-23.4,30.44,NE,45,9.8,13.6,1,0.00,,,0.00,WUHU216HW,2013-11-22 07:47:00,
2013-11-22 01:52:00,25.7,-23.4,30.44,NE,45,13.2,13.2,1,0.00,,,0.00,WUHU216HW,2013-11-22 07:52:00,
2013-11-22 01:57:00,25.7,-23.4,30.45,NE,45,11.6,13.2,1,0.00,,,0.00,WUHU216HW,2013-11-22 07:57:00,
2013-11-22 02:02:00,25.6,-23.6,30.45,NE,45,5.6,14.5,1,0.00,,,0.00,WUHU216HW,2013-11-22 08:02:00,
2013-11-22 02:07:00,25.6,-23.6,30.45,NE,45,11.4,15.0,1,0.00,,,0.00,WUHU216HW,2013-11-22 08:07:00,
2013-11-22 02:12:00,25.6,-23.6,30.45,NE,45,7.6,15.0,1,0.00,,,0.00,WUHU216HW,2013-11-22 08:12:00,
2013-11-22 02:17:00,25.6,-23.6,30.45,NE,45,9.6,11.9,1,0.00,,,0.00,WUHU216HW,2013-11-22 08:17:00,
2013-11-22 02:22:00,25.6,-23.6,30.44,NE,45,13.2,13.2,1,0.00,,,0.00,WUHU216HW,2013-11-22 08:22:00,
2013-11-22 02:27:00,25.6,-23.6,30.45,NE,45,3.8,13.2,1,0.00,,,0.00,WUHU216HW,2013-11-22 08:27:00,
2013-11-22 02:32:00,25.7,-23.4,30.45,NE,45,4.3,12.1,1,0.00,,,0.00,WUHU216HW,2013-11-22 08:32:00,
2013-11-22 02:37:00,25.4,-23.7,30.45,NE,45,13.0,16.1,1,0.00,,,0.00,WUHU216HW,2013-11-22 08:37:00,
2013-11-22 02:42:00,25.2,-23.8,30.45,NE,45,10.5,16.1,1,0.00,,,0.00,WUHU216HW,2013-11-22 08:42:00,
2013-11-22 02:47:00,25.2,-23.8,30.44,NE,45,11.0,12.1,1,0.00,,,0.00,WUHU216HW,2013-11-22 08:47:00,
2013-11-22 02:52:00,25.0,-23.9,30.44,NE,45,14.3,14.3,1,0.00,,,0.00,WUHU216HW,2013-11-22 08:52:00,
2013-11-22 02:57:00,24.8,-24.1,30.44,NE,45,11.6,18.6,1,0.00,,,0.00,WUHU216HW,2013-11-22 08:57:00,
2013-11-22 03:02:00,24.7,-24.3,30.45,NE,45,8.3,18.6,1,0.00,,,0.00,WUHU216HW,2013-11-22 09:02:00,
2013-11-22 03:07:00,24.7,-24.3,30.45,NE,45,10.5,15.4,1,0.00,,,0.00,WUHU216HW,2013-11-22 09:07:00,
2013-11-22 03:12:00,24.7,-24.3,30.45,NE,45,7.8,13.4,1,0.00,,,0.00,WUHU216HW,2013-11-22 09:12:00,
2013-11-22 03:17:00,24.8,-24.1,30.45,NE,45,9.2,13.4,1,0.00,,,0.00,WUHU216HW,2013-11-22 09:17:00,
2013-11-22 03:22:00,24.8,-24.1,30.43,NE,45,12.5,14.3,1,0.00,,,0.00,WUHU216HW,2013-11-22 09:22:00,
2013-11-22 03:27:00,24.7,-24.3,30.44,NE,45,14.3,14.3,1,0.00,,,0.00,WUHU216HW,2013-11-22 09:27:00,
2013-11-22 03:32:00,24.5,-24.4,30.43,NE,45,17.4,17.4,1,0.00,,,0.00,WUHU216HW,2013-11-22 09:32:00,
2013-11-22 03:37:00,24.3,-24.6,30.43,NE,45,15.7,17.4,1,0.00,,,0.00,WUHU216HW,2013-11-22 09:37:00,
2013-11-22 03:42:00,24.3,-24.6,30.44,NE,45,16.1,16.1,1,0.00,,,0.00,WUHU216HW,2013-11-22 09:42:00,
2013-11-22 03:47:00,24.3,-24.6,30.43,NE,45,12.3,17.9,1,0.00,,,0.00,WUHU216HW,2013-11-22 09:47:00,
2013-11-22 03:52:00,24.3,-24.6,30.44,NE,45,11.0,17.9,1,0.00,,,0.00,WUHU216HW,2013-11-22 09:52:00,
2013-11-22 03:57:00,24.3,-24.6,30.45,NE,45,9.6,15.0,1,0.00,,,0.00,WUHU216HW,2013-11-22 09:57:00,
2013-11-22 04:02:00,24.1,-24.6,30.45,NE,45,7.6,19.2,1,0.00,,,0.00,WUHU216HW,2013-11-22 10:02:00,
2013-11-22 04:07:00,24.1,-24.6,30.45,NE,45,6.9,19.2,1,0.00,,,0.00,WUHU216HW,2013-11-22 10:07:00,
2013-11-22 04:12:00,24.1,-24.6,30.46,NE,45,15.0,15.0,1,0.00,,,0.00,WUHU216HW,2013-11-22 10:12:00,
2013-11-22 04:17:00,24.1,-24.6,30.46,NE,45,12.1,15.0,1,0.00,,,0.00,WUHU216HW,2013-11-22 10:17:00,
2013-11-22 04:22:00,24.1,-24.6,30.46,NE,45,13.0,13.0,1,0.00,,,0.00,WUHU216HW,2013-11-22 10:22:00,
2013-11-22 04:27:00,24.1,-24.6,30.46,NE,45,10.3,17.2,1,0.00,,,0.00,WUHU216HW,2013-11-22 10:27:00,
2013-11-22 04:32:00,24.1,-24.6,30.46,NE,45,9.6,17.2,1,0.00,,,0.00,WUHU216HW,2013-11-22 10:32:00,
2013-11-22 04:37:00,24.1,-24.6,30.46,NE,45,7.6,16.6,1,0.00,,,0.00,WUHU216HW,2013-11-22 10:37:00,
2013-11-22 04:42:00,24.1,-24.6,30.45,NE,45,9.8,17.0,1,0.00,,,0.00,WUHU216HW,2013-11-22 10:42:00,
2013-11-22 04:47:00,24.1,-24.6,30.46,NE,45,9.8,17.0,1,0.00,,,0.00,WUHU216HW,2013-11-22 10:47:00,
2013-11-22 04:52:00,24.1,-24.6,30.46,NE,45,10.3,12.1,1,0.00,,,0.00,WUHU216HW,2013-11-22 10:52:00,
2013-11-22 04:57:00,24.1,-24.6,30.46,NE,45,15.0,15.0,1,0.00,,,0.00,WUHU216HW,2013-11-22 10:57:00,
2013-11-22 05:02:00,24.1,-24.6,30.47,NE,45,10.7,15.0,1,0.00,,,0.00,WUHU216HW,2013-11-22 11:02:00,
2013-11-22 05:07:00,24.1,-24.6,30.47,NE,45,11.4,14.3,1,0.00,,,0.00,WUHU216HW,2013-11-22 11:07:00,
2013-11-22 05:12:00,23.9,-24.8,30.47,NE,45,12.1,18.6,1,0.00,,,0.00,WUHU216HW,2013-11-22 11:12:00,
2013-11-22 05:17:00,23.9,-24.8,30.47,NE,45,12.1,18.6,1,0.00,,,0.00,WUHU216HW,2013-11-22 11:17:00,
2013-11-22 05:22:00,23.9,-24.8,30.48,NE,45,13.4,17.2,1,0.00,,,0.00,WUHU216HW,2013-11-22 11:22:00,
2013-11-22 05:27:00,23.9,-24.8,30.47,NE,45,10.1,13.4,1,0.00,,,0.00,WUHU216HW,2013-11-22 11:27:00,
2013-11-22 05:32:00,23.8,-25.0,30.47,NE,45,15.0,16.3,1,0.00,,,0.00,WUHU216HW,2013-11-22 11:32:00,
2013-11-22 05:37:00,23.8,-25.0,30.47,NE,45,9.2,16.3,1,0.00,,,0.00,WUHU216HW,2013-11-22 11:37:00,
2013-11-22 05:42:00,23.6,-25.1,30.47,NE,45,8.3,16.3,1,0.00,,,0.00,WUHU216HW,2013-11-22 11:42:00,
2013-11-22 05:46:00,23.6,-25.1,30.48,NE,45,6.5,16.3,1,0.00,,,0.00,WUHU216HW,2013-11-22 11:46:00,
2013-11-22 05:51:00,23.6,-25.1,30.48,NE,45,8.3,13.0,1,0.00,,,0.00,WUHU216HW,2013-11-22 11:51:00,
2013-11-22 05:56:00,23.4,-25.3,30.47,NE,45,13.4,13.9,1,0.00,,,0.00,WUHU216HW,2013-11-22 11:56:00,
2013-11-22 06:01:00,23.6,-25.1,30.48,NE,45,8.9,13.9,1,0.00,,,0.00,WUHU216HW,2013-11-22 12:01:00,
2013-11-22 06:06:00,23.6,-25.1,30.48,NE,45,8.9,15.2,1,0.00,,,0.00,WUHU216HW,2013-11-22 12:06:00,
2013-11-22 06:11:00,23.4,-25.3,30.48,NE,45,7.6,15.2,1,0.00,,,0.00,WUHU216HW,2013-11-22 12:11:00,
2013-11-22 06:16:00,23.6,-25.1,30.49,NE,45,5.8,13.2,1,0.00,,,0.00,WUHU216HW,2013-11-22 12:16:00,
2013-11-22 06:21:00,23.4,-25.3,30.49,NE,45,9.8,13.9,1,0.00,,,0.00,WUHU216HW,2013-11-22 12:21:00,
2013-11-22 06:26:00,23.4,-25.3,30.50,NE,45,6.0,13.9,1,0.00,,,0.00,WUHU216HW,2013-11-22 12:26:00,
2013-11-22 06:31:00,23.6,-25.1,30.50,NE,45,6.9,13.4,1,0.00,,,0.00,WUHU216HW,2013-11-22 12:31:00,
2013-11-22 06:36:00,23.6,-25.1,30.51,NE,45,4.7,15.9,1,0.00,,,0.00,WUHU216HW,2013-11-22 12:36:00,
2013-11-22 06:41:00,23.6,-25.1,30.51,NE,45,6.3,15.9,1,0.00,,,0.00,WUHU216HW,2013-11-22 12:41:00,
2013-11-22 06:46:00,23.6,-25.1,30.51,NE,45,7.2,11.0,1,0.00,,,0.00,WUHU216HW,2013-11-22 12:46:00,
2013-11-22 06:51:00,23.4,-25.3,30.51,NE,45,5.4,12.8,1,0.00,,,0.00,WUHU216HW,2013-11-22 12:51:00,
2013-11-22 06:56:00,23.4,-25.3,30.51,NE,45,10.5,12.8,1,0.00,,,0.00,WUHU216HW,2013-11-22 12:56:00,
2013-11-22 07:01:00,23.6,-25.1,30.52,NE,45,8.3,12.1,1,0.00,,,0.00,WUHU216HW,2013-11-22 13:01:00,
2013-11-22 07:06:00,23.6,-25.1,30.52,NE,45,8.7,11.2,1,0.00,,,0.00,WUHU216HW,2013-11-22 13:06:00,
2013-11-22 07:12:00,23.6,-25.1,30.53,NE,45,8.9,10.5,1,0.00,,,0.00,WUHU216HW,2013-11-22 13:12:00,
2013-11-22 07:17:00,23.6,-25.1,30.53,NE,45,6.3,10.5,1,0.00,,,0.00,WUHU216HW,2013-11-22 13:17:00,
2013-11-22 07:22:00,23.6,-25.1,30.53,NE,45,6.9,12.1,1,0.00,,,0.00,WUHU216HW,2013-11-22 13:22:00,
2013-11-22 07:27:00,23.6,-25.1,30.54,NE,45,7.6,12.1,1,0.00,,,0.00,WUHU216HW,2013-11-22 13:27:00,
2013-11-22 07:32:00,23.6,-25.1,30.53,NE,45,9.2,9.2,1,0.00,,,0.00,WUHU216HW,2013-11-22 13:32:00,
2013-11-22 07:37:00,23.8,-25.0,30.53,NE,45,7.6,9.2,1,0.00,,,0.00,WUHU216HW,2013-11-22 13:37:00,
2013-11-22 07:42:00,23.8,-25.0,30.53,NE,45,9.2,9.2,1,0.00,,,0.00,WUHU216HW,2013-11-22 13:42:00,
2013-11-22 07:47:00,23.8,-25.0,30.53,NE,45,7.6,9.2,1,0.00,,,0.00,WUHU216HW,2013-11-22 13:47:00,
2013-11-22 07:52:00,23.8,-25.0,30.54,NE,45,6.5,9.6,1,0.00,,,0.00,WUHU216HW,2013-11-22 13:52:00,
2013-11-22 07:57:00,23.8,-25.0,30.54,NE,45,3.4,9.6,1,0.00,,,0.00,WUHU216HW,2013-11-22 13:57:00,
2013-11-22 08:02:00,23.9,-24.8,30.54,NE,45,4.0,11.9,1,0.00,,,0.00,WUHU216HW,2013-11-22 14:02:00,
2013-11-22 08:07:00,23.8,-25.0,30.54,NE,45,12.5,12.5,1,0.00,,,0.00,WUHU216HW,2013-11-22 14:07:00,
2013-11-22 08:12:00,23.8,-25.0,30.54,NE,45,5.6,12.5,1,0.00,,,0.00,WUHU216HW,2013-11-22 14:12:00,
2013-11-22 08:17:00,23.9,-24.8,30.54,NE,45,6.3,11.2,1,0.00,,,0.00,WUHU216HW,2013-11-22 14:17:00,
2013-11-22 08:22:00,23.9,-24.8,30.55,NE,45,6.9,8.9,1,0.00,,,0.00,WUHU216HW,2013-11-22 14:22:00,
2013-11-22 08:26:00,23.8,-25.0,30.55,NE,45,10.5,10.5,1,0.00,,,0.00,WUHU216HW,2013-11-22 14:26:00,
2013-11-22 08:31:00,23.9,-24.8,30.55,NE,45,4.7,10.5,1,0.00,,,0.00,WUHU216HW,2013-11-22 14:31:00,
2013-11-22 08:36:00,23.8,-25.0,30.54,NE,45,4.0,11.4,1,0.00,,,0.00,WUHU216HW,2013-11-22 14:36:00,
2013-11-22 08:41:00,23.9,-24.8,30.54,NE,45,13.2,13.2,1,0.00,,,0.00,WUHU216HW,2013-11-22 14:41:00,
2013-11-22 08:46:00,23.9,-24.8,30.55,NE,45,7.6,13.2,1,0.00,,,0.00,WUHU216HW,2013-11-22 14:46:00,
2013-11-22 08:51:00,23.9,-24.8,30.54,NE,45,10.3,13.2,1,0.00,,,0.00,WUHU216HW,2013-11-22 14:51:00,
2013-11-22 08:56:00,23.8,-25.0,30.54,NE,45,4.9,13.2,1,0.00,,,0.00,WUHU216HW,2013-11-22 14:56:00,
2013-11-22 09:01:00,24.1,-24.6,30.54,NE,45,7.8,12.5,1,0.00,,,0.00,WUHU216HW,2013-11-22 15:01:00,
2013-11-22 09:07:00,23.6,-25.1,30.54,NE,45,10.1,12.5,1,0.00,,,0.00,WUHU216HW,2013-11-22 15:07:00,
2013-11-22 09:12:00,23.4,-25.3,30.54,NE,45,7.2,12.1,1,0.00,,,0.00,WUHU216HW,2013-11-22 15:12:00,
2013-11-22 09:17:00,23.8,-25.0,30.54,NE,45,5.1,12.1,1,0.00,,,0.00,WUHU216HW,2013-11-22 15:17:00,
2013-11-22 09:22:00,24.1,-24.6,30.55,NE,45,8.7,9.4,1,0.00,,,0.00,WUHU216HW,2013-11-22 15:22:00,
2013-11-22 09:27:00,23.9,-24.8,30.55,NE,45,6.0,12.1,1,0.00,,,0.00,WUHU216HW,2013-11-22 15:27:00,
2013-11-22 09:32:00,23.8,-25.0,30.55,NE,45,7.6,12.1,1,0.00,,,0.00,WUHU216HW,2013-11-22 15:32:00,
2013-11-22 09:37:00,23.8,-25.0,30.55,NE,45,5.8,9.8,1,0.00,,,0.00,WUHU216HW,2013-11-22 15:37:00,
2013-11-22 09:42:00,23.8,-25.0,30.55,NE,45,6.0,7.6,1,0.00,,,0.00,WUHU216HW,2013-11-22 15:42:00,
2013-11-22 09:47:00,24.1,-24.6,30.56,NE,45,9.4,9.4,1,0.00,,,0.00,WUHU216HW,2013-11-22 15:47:00,
2013-11-22 09:52:00,24.5,-24.4,30.55,NE,45,9.2,9.4,1,0.00,,,0.00,WUHU216HW,2013-11-22 15:52:00,
2013-11-22 09:57:00,25.2,-23.8,30.55,NE,45,10.5,11.4,1,0.00,,,0.00,WUHU216HW,2013-11-22 15:57:00,
2013-11-22 10:02:00,25.4,-23.7,30.56,NE,45,8.5,11.4,1,0.00,,,0.00,WUHU216HW,2013-11-22 16:02:00,
2013-11-22 10:07:00,25.4,-23.7,30.55,NE,45,4.9,9.2,1,0.00,,,0.00,WUHU216HW,2013-11-22 16:07:00,
2013-11-22 10:12:00,25.4,-23.7,30.56,NE,45,6.9,9.2,1,0.00,,,0.00,WUHU216HW,2013-11-22 16:12:00,
2013-11-22 10:17:00,25.4,-23.7,30.57,NE,45,3.4,8.9,1,0.00,,,0.00,WUHU216HW,2013-11-22 16:17:00,
2013-11-22 10:22:00,25.6,-23.6,30.57,NE,45,6.7,8.9,1,0.00,,,0.00,WUHU216HW,2013-11-22 16:22:00,
2013-11-22 10:27:00,25.7,-23.4,30.57,NE,45,6.7,7.2,1,0.00,,,0.00,WUHU216HW,2013-11-22 16:27:00,
2013-11-22 10:32:00,25.7,-23.4,30.57,NE,45,5.4,7.2,1,0.00,,,0.00,WUHU216HW,2013-11-22 16:32:00,
2013-11-22 10:37:00,25.9,-23.2,30.57,NE,45,4.3,6.0,1,0.00,,,0.00,WUHU216HW,2013-11-22 16:37:00,
2013-11-22 10:42:00,26.3,-22.9,30.57,NE,45,5.4,8.1,1,0.00,,,0.00,WUHU216HW,2013-11-22 16:42:00,
2013-11-22 10:47:00,27.0,-22.4,30.58,NE,45,5.4,8.1,1,0.00,,,0.00,WUHU216HW,2013-11-22 16:47:00,
2013-11-22 10:52:00,27.5,-22.0,30.58,NE,45,5.4,7.2,1,0.00,,,0.00,WUHU216HW,2013-11-22 16:52:00,
2013-11-22 10:57:00,27.5,-22.0,30.58,NE,45,8.7,8.7,1,0.00,,,0.00,WUHU216HW,2013-11-22 16:57:00,
2013-11-22 11:01:00,27.4,-22.1,30.58,NE,45,5.6,8.7,1,0.00,,,0.00,WUHU216HW,2013-11-22 17:01:00,
2013-11-22 11:06:00,27.4,-22.1,30.57,NE,45,6.3,11.2,1,0.00,,,0.00,WUHU216HW,2013-11-22 17:06:00,
2013-11-22 11:11:00,27.4,-22.1,30.56,NE,45,5.8,11.2,1,0.01,,,0.01,WUHU216HW,2013-11-22 17:11:00,
2013-11-22 11:16:00,27.7,-21.8,30.56,NE,45,6.9,10.3,1,0.01,,,0.01,WUHU216HW,2013-11-22 17:16:00,
2013-11-22 11:21:00,27.5,-22.0,30.56,NE,45,5.4,10.3,1,0.01,,,0.01,WUHU216HW,2013-11-22 17:21:00,
2013-11-22 11:26:00,27.5,-22.0,30.55,NE,45,6.5,9.8,1,0.01,,,0.01,WUHU216HW,2013-11-22 17:26:00,
2013-11-22 11:31:00,27.5,-22.0,30.55,NE,45,8.7,10.1,1,0.01,,,0.01,WUHU216HW,2013-11-22 17:31:00,
2013-11-22 11:36:00,27.7,-21.8,30.55,NE,45,5.4,10.1,1,0.01,,,0.01,WUHU216HW,2013-11-22 17:36:00,
2013-11-22 11:41:00,27.7,-21.8,30.55,NE,45,9.8,11.2,1,0.01,,,0.01,WUHU216HW,2013-11-22 17:41:00,
2013-11-22 11:46:00,27.7,-21.8,30.55,NE,45,11.2,12.1,1,0.01,,,0.01,WUHU216HW,2013-11-22 17:46:00,
2013-11-22 11:51:00,27.7,-21.8,30.55,NE,45,8.5,12.1,1,0.01,,,0.01,WUHU216HW,2013-11-22 17:51:00,
2013-11-22 11:56:00,27.7,-21.8,30.55,NE,45,6.9,9.4,1,0.01,,,0.01,WUHU216HW,2013-11-22 17:56:00,
2013-11-22 12:01:00,27.7,-21.8,30.55,NE,45,4.9,8.7,1,0.01,,,0.01,WUHU216HW,2013-11-22 18:01:00,
2013-11-22 12:06:00,27.4,-22.1,30.55,NE,45,7.8,10.3,1,0.01,,,0.01,WUHU216HW,2013-11-22 18:06:00,
2013-11-22 12:11:00,27.2,-22.2,30.55,NE,45,5.1,10.3,1,0.00,,,0.01,WUHU216HW,2013-11-22 18:11:00,
2013-11-22 12:17:00,27.0,-22.4,30.55,NE,45,7.2,10.1,1,0.00,,,0.01,WUHU216HW,2013-11-22 18:17:00,
2013-11-22 12:22:00,26.6,-22.7,30.55,NE,45,9.2,13.9,1,0.00,,,0.01,WUHU216HW,2013-11-22 18:22:00,
2013-11-22 12:27:00,26.3,-22.9,30.55,NE,45,8.5,13.9,1,0.00,,,0.01,WUHU216HW,2013-11-22 18:27:00,
2013-11-22 12:32:00,25.9,-23.2,30.55,NE,45,8.5,11.2,1,0.00,,,0.01,WUHU216HW,2013-11-22 18:32:00,
2013-11-22 12:37:00,25.7,-23.4,30.55,NE,45,11.4,11.4,1,0.00,,,0.01,WUHU216HW,2013-11-22 18:37:00,
2013-11-22 12:42:00,25.6,-23.6,30.56,NE,45,6.9,12.8,1,0.00,,,0.01,WUHU216HW,2013-11-22 18:42:00,
2013-11-22 12:47:00,25.4,-23.7,30.56,NE,45,7.8,12.8,1,0.00,,,0.01,WUHU216HW,2013-11-22 18:47:00,
2013-11-22 12:52:00,25.6,-23.6,30.56,NE,45,8.5,11.2,1,0.00,,,0.01,WUHU216HW,2013-11-22 18:52:00,
2013-11-22 12:57:00,25.2,-23.8,30.55,NE,45,5.4,11.2,1,0.00,,,0.01,WUHU216HW,2013-11-22 18:57:00,
2013-11-22 13:02:00,25.4,-23.7,30.55,NE,45,6.5,12.3,1,0.00,,,0.01,WUHU216HW,2013-11-22 19:02:00,
2013-11-22 13:07:00,25.4,-23.7,30.55,NE,45,9.2,12.8,1,0.00,,,0.01,WUHU216HW,2013-11-22 19:07:00,
2013-11-22 13:12:00,25.2,-23.8,30.55,NE,45,10.5,12.8,1,0.00,,,0.01,WUHU216HW,2013-11-22 19:12:00,
2013-11-22 13:17:00,25.6,-23.6,30.55,NE,45,9.8,13.4,1,0.00,,,0.01,WUHU216HW,2013-11-22 19:17:00,
2013-11-22 13:22:00,25.7,-23.4,30.55,NE,45,9.6,13.4,1,0.00,,,0.01,WUHU216HW,2013-11-22 19:22:00,
2013-11-22 13:27:00,25.9,-23.2,30.55,NE,45,16.3,16.3,1,0.00,,,0.01,WUHU216HW,2013-11-22 19:27:00,
2013-11-22 13:32:00,25.9,-23.2,30.54,NE,45,12.8,16.3,1,0.00,,,0.01,WUHU216HW,2013-11-22 19:32:00,
2013-11-22 13:37:00,26.3,-22.9,30.54,NE,45,13.2,13.2,1,0.00,,,0.01,WUHU216HW,2013-11-22 19:37:00,
2013-11-22 13:42:00,26.3,-22.9,30.54,NE,45,9.4,13.2,1,0.00,,,0.01,WUHU216HW,2013-11-22 19:42:00,
2013-11-22 13:47:00,26.5,-22.9,30.54,NE,45,10.3,13.9,1,0.00,,,0.01,WUHU216HW,2013-11-22 19:47:00,
2013-11-22 13:52:00,26.8,-22.5,30.54,NE,45,6.3,13.9,1,0.00,,,0.01,WUHU216HW,2013-11-22 19:52:00,
2013-11-22 13:57:00,27.2,-22.2,30.54,NE,45,2.7,11.0,1,0.00,,,0.01,WUHU216HW,2013-11-22 19:57:00,
2013-11-22 14:02:00,27.4,-22.1,30.53,NE,45,8.5,9.6,1,0.00,,,0.01,WUHU216HW,2013-11-22 20:02:00,
2013-11-22 14:07:00,27.4,-22.1,30.53,NE,45,5.4,8.5,1,0.00,,,0.01,WUHU216HW,2013-11-22 20:07:00,
2013-11-22 14:12:00,27.2,-22.2,30.54,NE,45,13.2,14.3,1,0.00,,,0.01,WUHU216HW,2013-11-22 20:12:00,
2013-11-22 14:17:00,27.2,-22.2,30.54,NE,45,6.9,14.3,1,0.00,,,0.01,WUHU216HW,2013-11-22 20:17:00,
2013-11-22 14:22:00,27.2,-22.2,30.53,NE,45,8.3,13.4,1,0.00,,,0.01,WUHU216HW,2013-11-22 20:22:00,
2013-11-22 14:27:00,27.4,-22.1,30.53,NE,45,6.5,13.4,1,0.00,,,0.01,WUHU216HW,2013-11-22 20:27:00,
2013-11-22 14:32:00,27.5,-22.0,30.53,NE,45,9.2,12.1,1,0.00,,,0.01,WUHU216HW,2013-11-22 20:32:00,
2013-11-22 14:37:00,27.4,-22.1,30.53,NE,45,9.8,12.1,1,0.00,,,0.01,WUHU216HW,2013-11-22 20:37:00,
2013-11-22 14:42:00,27.4,-22.1,30.53,NE,45,6.9,9.8,1,0.00,,,0.01,WUHU216HW,2013-11-22 20:42:00,
2013-11-22 14:47:00,27.5,-22.0,30.53,NE,45,10.5,10.7,1,0.00,,,0.01,WUHU216HW,2013-11-22 20:47:00,
2013-11-22 14:52:00,27.5,-22.0,30.53,NE,45,6.3,10.7,1,0.00,,,0.01,WUHU216HW,2013-11-22 20:52:00,
2013-11-22 14:57:00,27.7,-21.8,30.53,NE,45,9.8,11.9,1,0.00,,,0.01,WUHU216HW,2013-11-22 20:57:00,
2013-11-22 15:02:00,27.7,-21.8,30.53,NE,45,7.4,11.9,1,0.00,,,0.01,WUHU216HW,2013-11-22 21:02:00,
2013-11-22 15:07:00,27.7,-21.8,30.53,NE,45,9.6,11.4,1,0.00,,,0.01,WUHU216HW,2013-11-22 21:07:00,
2013-11-22 15:12:00,27.7,-21.8,30.53,NE,45,11.6,11.6,1,0.00,,,0.01,WUHU216HW,2013-11-22 21:12:00,
2013-11-22 15:17:00,27.7,-21.8,30.53,NE,45,8.7,14.3,1,0.00,,,0.01,WUHU216HW,2013-11-22 21:17:00,
2013-11-22 15:22:00,27.5,-22.0,30.54,NE,45,7.4,14.3,1,0.00,,,0.01,WUHU216HW,2013-11-22 21:22:00,
2013-11-22 15:27:00,27.7,-21.8,30.54,NE,45,6.9,11.0,1,0.00,,,0.01,WUHU216HW,2013-11-22 21:27:00,
2013-11-22 15:32:00,27.7,-21.8,30.54,NE,45,11.4,11.4,1,0.00,,,0.01,WUHU216HW,2013-11-22 21:32:00,
2013-11-22 15:37:00,27.7,-21.8,30.54,NE,45,7.4,12.8,1,0.00,,,0.01,WUHU216HW,2013-11-22 21:37:00,
2013-11-22 15:42:00,27.5,-22.0,30.54,NE,45,13.2,13.2,1,0.00,,,0.01,WUHU216HW,2013-11-22 21:42:00,
2013-11-22 15:47:00,27.4,-22.1,30.54,NE,45,7.2,13.2,1,0.00,,,0.01,WUHU216HW,2013-11-22 21:47:00,
2013-11-22 15:52:00,27.2,-22.2,30.54,NE,45,7.6,9.8,1,0.00,,,0.01,WUHU216HW,2013-11-22 21:52:00,
2013-11-22 15:57:00,27.2,-22.2,30.55,NE,45,9.6,13.9,1,0.00,,,0.01,WUHU216HW,2013-11-22 21:57:00,
2013-11-22 16:02:00,27.0,-22.4,30.55,NE,45,6.3,13.9,1,0.00,,,0.01,WUHU216HW,2013-11-22 22:02:00,
2013-11-22 16:07:00,27.0,-22.4,30.55,NE,45,4.0,9.8,1,0.00,,,0.01,WUHU216HW,2013-11-22 22:07:00,
2013-11-22 16:12:00,27.0,-22.4,30.55,NE,45,10.3,10.3,1,0.00,,,0.01,WUHU216HW,2013-11-22 22:12:00,
2013-11-22 16:17:00,27.0,-22.4,30.54,NE,45,4.7,10.3,1,0.00,,,0.01,WUHU216HW,2013-11-22 22:17:00,
2013-11-22 16:21:00,27.0,-22.4,30.55,NE,45,11.4,11.4,1,0.00,,,0.01,WUHU216HW,2013-11-22 22:21:00,
2013-11-22 16:26:00,27.0,-22.4,30.54,NE,45,3.8,11.4,1,0.00,,,0.01,WUHU216HW,2013-11-22 22:26:00,
2013-11-22 16:31:00,27.0,-22.4,30.54,NE,45,9.2,9.4,1,0.00,,,0.01,WUHU216HW,2013-11-22 22:31:00,
2013-11-22 16:36:00,27.0,-22.4,30.55,NE,45,9.4,9.8,1,0.00,,,0.01,WUHU216HW,2013-11-22 22:36:00,
2013-11-22 16:42:00,26.8,-22.5,30.55,NE,45,5.6,9.8,1,0.00,,,0.01,WUHU216HW,2013-11-22 22:42:00,
2013-11-22 16:47:00,26.6,-22.7,30.55,NE,45,6.7,9.2,1,0.00,,,0.01,WUHU216HW,2013-11-22 22:47:00,
2013-11-22 16:52:00,26.6,-22.7,30.54,NE,45,6.9,9.6,1,0.00,,,0.01,WUHU216HW,2013-11-22 22:52:00,
2013-11-22 16:57:00,26.5,-22.9,30.54,NE,45,6.3,9.6,1,0.00,,,0.01,WUHU216HW,2013-11-22 22:57:00,
2013-11-22 17:02:00,26.5,-22.9,30.54,NE,45,8.5,8.5,1,0.00,,,0.01,WUHU216HW,2013-11-22 23:02:00,
2013-11-22 17:07:00,26.3,-22.9,30.55,NE,45,9.2,9.2,1,0.00,,,0.01,WUHU216HW,2013-11-22 23:07:00,
2013-11-22 17:12:00,26.3,-22.9,30.55,NE,45,9.6,9.6,1,0.00,,,0.01,WUHU216HW,2013-11-22 23:12:00,
2013-11-22 17:17:00,26.3,-22.9,30.55,NE,45,10.7,11.0,1,0.00,,,0.01,WUHU216HW,2013-11-22 23:17:00,
2013-11-22 17:21:00,26.1,-23.1,30.55,NE,45,8.3,11.0,1,0.00,,,0.01,WUHU216HW,2013-11-22 23:21:00,
2013-11-22 17:26:00,26.1,-23.1,30.55,NE,45,5.4,8.9,1,0.00,,,0.01,WUHU216HW,2013-11-22 23:26:00,
2013-11-22 17:32:00,26.1,-23.1,30.55,NE,45,3.8,8.9,1,0.00,,,0.01,WUHU216HW,2013-11-22 23:32:00,
2013-11-22 17:37:00,26.1,-23.1,30.55,NE,45,3.4,8.1,1,0.00,,,0.01,WUHU216HW,2013-11-22 23:37:00,
2013-11-22 17:42:00,26.1,-23.1,30.55,NE,45,3.8,8.1,1,0.00,,,0.01,WUHU216HW,2013-11-22 23:42:00,
2013-11-22 17:47:00,26.1,-23.1,30.55,NE,45,6.9,7.6,1,0.00,,,0.01,WUHU216HW,2013-11-22 23:47:00,
2013-11-22 17:52:00,25.9,-23.2,30.55,NE,45,2.2,7.6,1,0.00,,,0.01,WUHU216HW,2013-11-22 23:52:00,
2013-11-22 17:57:00,25.9,-23.2,30.55,NE,45,6.9,6.9,1,0.00,,,0.01,WUHU216HW,2013-11-22 23:57:00,
2013-11-22 18:02:00,25.7,-23.4,30.55,NE,45,6.3,6.9,1,0.00,,,0.01,WUHU216HW,2013-11-23 00:02:00,
2013-11-22 18:07:00,25.7,-23.4,30.55,NE,45,4.3,8.1,1,0.00,,,0.01,WUHU216HW,2013-11-23 00:07:00,
2013-11-22 18:12:00,25.7,-23.4,30.55,NE,45,4.5,8.1,1,0.00,,,0.01,WUHU216HW,2013-11-23 00:12:00,
2013-11-22 18:17:00,25.6,-23.6,30.55,NE,45,6.3,6.3,1,0.00,,,0.01,WUHU216HW,2013-11-23 00:17:00,
2013-11-22 18:21:00,25.6,-23.6,30.55,NE,45,7.6,9.2,1,0.00,,,0.01,WUHU216HW,2013-11-23 00:21:00,
2013-11-22 18:26:00,25.6,-23.6,30.55,NE,45,5.4,9.2,1,0.00,,,0.01,WUHU216HW,2013-11-23 00:26:00,
2013-11-22 18:31:00,25.6,-23.6,30.55,NE,45,6.3,7.6,1,0.00,,,0.01,WUHU216HW,2013-11-23 00:31:00,
2013-11-22 18:36:00,25.6,-23.6,30.55,NE,45,6.7,8.3,1,0.00,,,0.01,WUHU216HW,2013-11-23 00:36:00,
2013-11-22 18:41:00,25.4,-23.7,30.54,NE,45,6.9,8.5,1,0.00,,,0.01,WUHU216HW,2013-11-23 00:41:00,
2013-11-22 18:46:00,25.4,-23.7,30.54,NE,45,3.1,8.5,1,0.00,,,0.01,WUHU216HW,2013-11-23 00:46:00,
2013-11-22 18:51:00,25.4,-23.7,30.54,NE,45,3.8,7.6,1,0.00,,,0.01,WUHU216HW,2013-11-23 00:51:00,
2013-11-22 18:56:00,25.4,-23.7,30.54,NE,45,6.0,6.9,1,0.00,,,0.01,WUHU216HW,2013-11-23 00:56:00,
2013-11-22 19:02:00,25.4,-23.7,30.55,NE,45,6.3,8.5,1,0.00,,,0.01,WUHU216HW,2013-11-23 01:02:00,
2013-11-22 19:06:00,25.4,-23.7,30.55,NE,45,6.3,8.5,1,0.00,,,0.01,WUHU216HW,2013-11-23 01:06:00,
2013-11-22 19:11:00,25.4,-23.7,30.55,NE,45,5.1,7.6,1,0.00,,,0.01,WUHU216HW,2013-11-23 01:11:00,
2013-11-22 19:16:00,25.4,-23.7,30.55,NE,45,2.7,6.3,1,0.00,,,0.01,WUHU216HW,2013-11-23 01:16:00,
2013-11-22 19:21:00,25.4,-23.7,30.55,NE,45,3.4,6.3,1,0.00,,,0.01,WUHU216HW,2013-11-23 01:21:00,
2013-11-22 19:27:00,25.4,-23.7,30.55,NE,45,4.7,5.8,1,0.00,,,0.01,WUHU216HW,2013-11-23 01:27:00,
2013-11-22 19:32:00,25.2,-23.8,30.55,NE,45,5.1,5.1,1,0.00,,,0.01,WUHU216HW,2013-11-23 01:32:00,
2013-11-22 19:37:00,25.2,-23.8,30.55,NE,45,4.7,5.1,1,0.00,,,0.01,WUHU216HW,2013-11-23 01:37:00,
2013-11-22 19:42:00,25.2,-23.8,30.55,NE,45,1.8,4.7,1,0.00,,,0.01,WUHU216HW,2013-11-23 01:42:00,
2013-11-22 19:47:00,25.2,-23.8,30.55,NE,45,4.0,5.8,1,0.00,,,0.01,WUHU216HW,2013-11-23 01:47:00,
2013-11-22 19:52:00,25.2,-23.8,30.55,NE,45,3.4,7.6,1,0.00,,,0.01,WUHU216HW,2013-11-23 01:52:00,
2013-11-22 19:57:00,25.2,-23.8,30.55,NE,45,2.9,7.6,1,0.00,,,0.01,WUHU216HW,2013-11-23 01:57:00,
2013-11-22 20:02:00,25.2,-23.8,30.55,NE,45,3.6,4.7,1,0.00,,,0.01,WUHU216HW,2013-11-23 02:02:00,
2013-11-22 20:07:00,25.2,-23.8,30.55,NE,45,5.6,6.7,1,0.00,,,0.01,WUHU216HW,2013-11-23 02:07:00,
2013-11-22 20:12:00,25.2,-23.8,30.55,NE,45,4.9,6.7,1,0.00,,,0.01,WUHU216HW,2013-11-23 02:12:00,
2013-11-22 20:17:00,25.2,-23.8,30.55,NE,45,7.6,11.4,1,0.00,,,0.01,WUHU216HW,2013-11-23 02:17:00,
2013-11-22 20:22:00,25.0,-23.9,30.55,NE,45,5.8,11.4,1,0.00,,,0.01,WUHU216HW,2013-11-23 02:22:00,
2013-11-22 20:26:00,25.0,-23.9,30.55,NE,45,6.3,6.9,1,0.00,,,0.01,WUHU216HW,2013-11-23 02:26:00,
2013-11-22 20:31:00,25.0,-23.9,30.55,NE,45,4.7,7.6,1,0.00,,,0.01,WUHU216HW,2013-11-23 02:31:00,
2013-11-22 20:37:00,25.0,-23.9,30.55,NE,45,4.0,7.6,1,0.00,,,0.01,WUHU216HW,2013-11-23 02:37:00,
2013-11-22 20:42:00,25.0,-23.9,30.55,NE,45,3.8,6.7,1,0.00,,,0.01,WUHU216HW,2013-11-23 02:42:00,
2013-11-22 20:47:00,25.0,-23.9,30.55,NE,45,6.3,6.3,1,0.00,,,0.01,WUHU216HW,2013-11-23 02:47:00,
2013-11-22 20:52:00,25.2,-23.8,30.56,NE,45,5.4,8.9,1,0.00,,,0.01,WUHU216HW,2013-11-23 02:52:00,
2013-11-22 20:57:00,25.0,-23.9,30.56,NE,45,5.6,8.9,1,0.00,,,0.01,WUHU216HW,2013-11-23 02:57:00,
2013-11-22 21:02:00,25.0,-23.9,30.56,NE,45,4.7,6.3,1,0.00,,,0.01,WUHU216HW,2013-11-23 03:02:00,
2013-11-22 21:06:00,25.0,-23.9,30.56,NE,45,5.4,6.7,1,0.00,,,0.01,WUHU216HW,2013-11-23 03:06:00,
2013-11-22 21:11:00,24.8,-24.1,30.56,NE,45,5.1,6.7,1,0.00,,,0.01,WUHU216HW,2013-11-23 03:11:00,
2013-11-22 21:16:00,24.8,-24.1,30.56,NE,45,6.5,6.9,1,0.00,,,0.01,WUHU216HW,2013-11-23 03:16:00,
2013-11-22 21:21:00,24.7,-24.3,30.56,NE,45,5.4,7.6,1,0.00,,,0.01,WUHU216HW,2013-11-23 03:21:00,
2013-11-22 21:26:00,24.5,-24.4,30.56,NE,45,4.0,7.6,1,0.00,,,0.01,WUHU216HW,2013-11-23 03:26:00,
2013-11-22 21:31:00,24.3,-24.6,30.56,NE,45,3.6,8.3,1,0.00,,,0.01,WUHU216HW,2013-11-23 03:31:00,
2013-11-22 21:36:00,24.1,-24.6,30.56,NE,45,6.7,8.3,1,0.00,,,0.01,WUHU216HW,2013-11-23 03:36:00,
2013-11-22 21:41:00,24.1,-24.6,30.56,NE,45,2.2,6.7,1,0.00,,,0.01,WUHU216HW,2013-11-23 03:41:00,
2013-11-22 21:46:00,23.8,-25.0,30.56,NE,45,2.2,4.7,1,0.00,,,0.01,WUHU216HW,2013-11-23 03:46:00,
2013-11-22 21:51:00,23.6,-25.1,30.56,NE,45,0.7,4.0,1,0.00,,,0.01,WUHU216HW,2013-11-23 03:51:00,
2013-11-22 21:56:00,23.4,-25.3,30.57,NE,45,0.4,3.4,1,0.00,,,0.01,WUHU216HW,2013-11-23 03:56:00,
2013-11-22 22:01:00,23.2,-25.4,30.56,NE,45,1.1,1.8,1,0.00,,,0.01,WUHU216HW,2013-11-23 04:01:00,
2013-11-22 22:06:00,23.0,-25.6,30.56,NE,45,0.4,1.8,1,0.00,,,0.01,WUHU216HW,2013-11-23 04:06:00,
2013-11-22 22:11:00,22.9,-25.7,30.56,NE,45,0.4,1.1,1,0.00,,,0.01,WUHU216HW,2013-11-23 04:11:00,
2013-11-22 22:16:00,22.9,-25.7,30.56,NE,45,0.4,1.1,1,0.00,,,0.01,WUHU216HW,2013-11-23 04:16:00,
2013-11-22 22:21:00,22.7,-25.8,30.56,NE,45,0.4,0.9,1,0.00,,,0.01,WUHU216HW,2013-11-23 04:21:00,
2013-11-22 22:26:00,22.5,-26.0,30.56,NE,45,0.4,0.4,1,0.00,,,0.01,WUHU216HW,2013-11-23 04:26:00,
2013-11-22 22:31:00,22.3,-26.1,30.56,NE,45,1.8,1.8,1,0.00,,,0.01,WUHU216HW,2013-11-23 04:31:00,
2013-11-22 22:36:00,22.3,-26.1,30.55,NE,45,1.1,1.8,1,0.00,,,0.01,WUHU216HW,2013-11-23 04:36:00,
2013-11-22 22:41:00,22.3,-26.1,30.55,NE,45,1.6,1.8,1,0.00,,,0.01,WUHU216HW,2013-11-23 04:41:00,
2013-11-22 22:46:00,22.3,-26.1,30.55,NE,45,0.4,1.8,1,0.00,,,0.01,WUHU216HW,2013-11-23 04:46:00,
2013-11-22 22:51:00,22.1,-26.3,30.55,NE,45,0.0,1.6,1,0.00,,,0.01,WUHU216HW,2013-11-23 04:51:00,
2013-11-22 22:56:00,22.1,-26.3,30.55,NE,45,0.4,0.9,1,0.00,,,0.01,WUHU216HW,2013-11-23 04:56:00,
2013-11-22 23:01:00,22.1,-26.3,30.55,NE,45,0.0,0.9,1,0.00,,,0.01,WUHU216HW,2013-11-23 05:01:00,
2013-11-22 23:02:00,22.1,-26.3,30.55,NE,45,0.4,0.9,1,0.00,,,0.01,WUHU216HW,2013-11-23 05:02:00,
2013-11-22 23:07:00,22.0,-26.5,30.55,NE,45,0.0,0.4,1,0.00,,,0.01,WUHU216HW,2013-11-23 05:07:00,
2013-11-22 23:12:00,22.1,-26.3,30.55,NE,45,0.7,1.1,1,0.00,,,0.01,WUHU216HW,2013-11-23 05:12:00,
2013-11-22 23:17:00,22.1,-26.3,30.55,NE,45,0.0,1.1,1,0.00,,,0.01,WUHU216HW,2013-11-23 05:17:00,
2013-11-22 23:22:00,22.3,-26.1,30.55,NE,45,0.7,0.9,1,0.00,,,0.01,WUHU216HW,2013-11-23 05:22:00,
2013-11-22 23:27:00,22.3,-26.1,30.55,NE,45,1.3,1.3,1,0.00,,,0.01,WUHU216HW,2013-11-23 05:27:00,
2013-11-22 23:32:00,22.5,-26.0,30.55,NE,45,0.7,1.3,1,0.00,,,0.01,WUHU216HW,2013-11-23 05:32:00,
2013-11-22 23:37:00,22.7,-25.8,30.55,NE,45,1.1,1.8,1,0.00,,,0.01,WUHU216HW,2013-11-23 05:37:00,
2013-11-22 23:42:00,23.0,-25.6,30.55,NE,45,0.9,1.8,1,0.00,,,0.01,WUHU216HW,2013-11-23 05:42:00,
2013-11-22 23:47:00,23.2,-25.4,30.55,NE,45,2.0,2.5,1,0.00,,,0.01,WUHU216HW,2013-11-23 05:47:00,
2013-11-22 23:52:00,23.4,-25.3,30.55,NE,45,0.4,2.5,1,0.00,,,0.01,WUHU216HW,2013-11-23 05:52:00,
2013-11-22 23:57:00,23.4,-25.3,30.55,NE,45,2.0,2.5,1,0.00,,,0.01,WUHU216HW,2013-11-23 05:57:00,